Time;durP1;ratioP1;P1;durP2;ratioP2;P2;SDS_P1;SDS_P2;PMS_P1;PMS_P2;Temp;Humidity;BMP_temperature;BMP_pressure;BME280_temperature;BME280_humidity;BME280_pressure;Samples;Min_cycle;Max_cycle;Signal;HPM_P1;HPM_P2
2023/04/10 00:01:13;;;;;;;9.13;8.73;;;21.20;53.10;;;;;;5114596;28;20484;-59
2023/04/10 00:03:40;;;;;;;9.30;8.80;;;21.20;53.10;;;;;;5114549;28;20481;-57
2023/04/10 00:06:07;;;;;;;8.70;8.43;;;21.20;53.20;;;;;;5114361;28;20507;-57
2023/04/10 00:08:34;;;;;;;8.70;8.40;;;21.10;53.10;;;;;;5094700;28;20470;-57
2023/04/10 00:11:01;;;;;;;8.47;8.17;;;21.20;53.20;;;;;;5093960;28;20534;-58
2023/04/10 00:13:30;;;;;;;8.63;8.33;;;21.10;53.10;;;;;;5093904;28;20945;-57
2023/04/10 00:15:56;;;;;;;8.17;7.97;;;21.10;53.10;;;;;;5093780;28;20494;-56
2023/04/10 00:18:23;;;;;;;8.03;7.80;;;21.10;53.10;;;;;;5093581;28;20538;-58
2023/04/10 00:20:50;;;;;;;8.47;8.23;;;21.10;53.10;;;;;;5096526;28;20524;-58
2023/04/10 00:23:17;;;;;;;9.03;8.73;;;21.10;53.20;;;;;;5105042;28;20492;-59
2023/04/10 00:25:44;;;;;;;8.73;8.43;;;21.10;53.20;;;;;;5108819;28;20513;-58
2023/04/10 00:28:11;;;;;;;8.57;8.37;;;21.10;53.20;;;;;;5113901;28;20484;-57
2023/04/10 00:30:39;;;;;;;8.40;8.10;;;21.10;53.20;;;;;;5114024;28;20480;-57
2023/04/10 00:33:06;;;;;;;8.67;8.37;;;21.10;53.30;;;;;;5113932;28;20477;-57
2023/04/10 00:35:33;;;;;;;9.37;8.97;;;21.10;53.30;;;;;;5106503;28;20545;-56
2023/04/10 00:38:00;;;;;;;8.60;8.30;;;21.10;53.30;;;;;;5103643;28;20884;-58
2023/04/10 00:40:29;;;;;;;8.10;7.90;;;21.00;53.30;;;;;;5113770;28;20441;-57
2023/04/10 00:42:56;;;;;;;8.20;7.97;;;21.10;53.40;;;;;;5113820;28;20437;-58
2023/04/10 00:45:23;;;;;;;7.90;7.70;;;21.10;53.40;;;;;;5113577;28;20524;-59
2023/04/10 00:47:51;;;;;;;8.67;8.37;;;21.00;53.30;;;;;;5113482;28;20473;-58
2023/04/10 00:50:20;;;;;;;8.80;8.50;;;21.00;53.40;;;;;;5097848;28;20485;-57
2023/04/10 00:52:47;;;;;;;8.73;8.50;;;21.00;53.40;;;;;;5099991;28;20441;-58
2023/04/10 00:55:15;;;;;;;9.07;8.67;;;21.00;53.40;;;;;;5113466;28;20891;-57
2023/04/10 00:57:45;;;;;;;8.53;8.23;;;21.00;53.40;;;;;;5113270;28;21172;-58
2023/04/10 01:00:13;;;;;;;8.43;8.23;;;21.00;53.40;;;;;;5113715;28;20445;-58
2023/04/10 01:02:40;;;;;;;9.00;8.70;;;21.00;53.50;;;;;;5113058;28;20987;-58
2023/04/10 01:05:10;;;;;;;8.43;8.13;;;21.00;53.40;;;;;;5093045;28;20559;-58
2023/04/10 01:07:58;;;;;;;8.70;8.40;;;21.00;53.50;;;;;;5092704;28;20438;-56
2023/04/10 01:10:35;;;;;;;8.30;8.00;;;21.00;53.50;;;;;;5108751;28;20880;-55
2023/04/10 01:13:11;;;;;;;9.13;8.77;;;21.00;53.50;;;;;;5113248;28;20863;-58
2023/04/10 01:15:45;;;;;;;8.90;8.60;;;21.00;53.50;;;;;;5113077;28;20936;-57
2023/04/10 01:18:20;;;;;;;8.40;8.20;;;21.00;53.50;;;;;;5102556;28;20473;-58
2023/04/10 01:20:49;;;;;;;9.00;8.70;;;20.90;53.50;;;;;;5092647;28;20957;-56
2023/04/10 01:23:58;;;;;;;8.30;8.00;;;21.00;53.50;;;;;;5092560;28;20481;-57
2023/04/10 01:26:48;;;;;;;8.47;8.20;;;20.90;53.50;;;;;;5043434;28;20565;-59
2023/04/10 01:29:19;;;;;;;8.60;8.37;;;20.90;53.50;;;;;;5092363;28;20470;-58
2023/04/10 01:31:52;;;;;;;9.53;9.23;;;20.90;53.50;;;;;;5093560;28;20453;-55
2023/04/10 01:34:22;;;;;;;8.73;8.43;;;20.90;53.50;;;;;;5102950;28;20481;-58
2023/04/10 01:36:53;;;;;;;8.87;8.47;;;20.90;53.50;;;;;;5111618;28;20530;-58
2023/04/10 01:39:22;;;;;;;8.60;8.40;;;20.90;53.50;;;;;;5112648;28;20878;-58
2023/04/10 01:41:51;;;;;;;8.97;8.67;;;20.90;53.50;;;;;;5112636;28;20484;-58
2023/04/10 01:44:24;;;;;;;8.90;8.60;;;20.90;53.50;;;;;;5094728;28;20899;-58
2023/04/10 01:46:53;;;;;;;8.70;8.40;;;20.90;53.50;;;;;;5091971;28;20485;-58
2023/04/10 01:49:21;;;;;;;9.17;8.77;;;20.90;53.50;;;;;;5096722;28;20537;-57
2023/04/10 01:51:49;;;;;;;9.43;9.13;;;20.90;53.50;;;;;;5092095;28;20474;-58
2023/04/10 01:54:16;;;;;;;8.80;8.50;;;20.90;53.50;;;;;;5098330;28;21055;-58
2023/04/10 01:56:44;;;;;;;9.17;8.87;;;20.90;53.50;;;;;;5112058;28;20473;-58
2023/04/10 01:59:12;;;;;;;8.73;8.43;;;20.90;53.50;;;;;;5112359;28;20873;-58
2023/04/10 02:01:40;;;;;;;9.47;9.10;;;20.90;53.50;;;;;;5112256;28;20474;-58
2023/04/10 02:04:07;;;;;;;8.47;8.17;;;20.90;53.40;;;;;;5112091;28;20827;-58
2023/04/10 02:06:41;;;;;;;10.23;9.83;;;20.90;53.40;;;;;;5102966;28;20929;-58
2023/04/10 02:09:21;;;;;;;8.97;8.60;;;20.80;53.40;;;;;;5091802;28;20442;-56
2023/04/10 02:11:54;;;;;;;8.97;8.60;;;20.80;53.40;;;;;;5091842;28;20861;-57
2023/04/10 02:14:23;;;;;;;8.83;8.53;;;20.80;53.60;;;;;;5091809;28;20463;-57
2023/04/10 02:16:54;;;;;;;8.63;8.40;;;20.80;53.60;;;;;;5091625;28;20434;-58
2023/04/10 02:19:24;;;;;;;9.20;8.90;;;20.80;53.60;;;;;;5091969;28;20466;-57
2023/04/10 02:21:52;;;;;;;9.13;8.83;;;20.80;53.60;;;;;;5109839;28;20448;-56
2023/04/10 02:24:20;;;;;;;8.50;8.20;;;20.80;53.60;;;;;;5111910;28;20461;-58
2023/04/10 02:26:48;;;;;;;8.50;8.20;;;20.80;53.60;;;;;;5111659;28;20565;-58
2023/04/10 02:29:15;;;;;;;9.13;8.83;;;20.80;53.60;;;;;;5111894;28;20476;-57
2023/04/10 02:31:42;;;;;;;8.97;8.57;;;20.80;53.60;;;;;;5111857;28;20445;-58
2023/04/10 02:34:10;;;;;;;8.40;8.20;;;20.80;53.60;;;;;;5106913;28;20557;-58
2023/04/10 02:36:38;;;;;;;8.67;8.37;;;20.80;53.60;;;;;;5091386;28;20466;-57
2023/04/10 02:39:05;;;;;;;9.10;8.67;;;20.80;53.60;;;;;;5091307;28;20541;-59
2023/04/10 02:41:32;;;;;;;8.50;8.20;;;20.80;53.60;;;;;;5091389;28;20478;-57
2023/04/10 02:43:59;;;;;;;9.30;8.90;;;20.80;53.50;;;;;;5108158;28;20870;-58
2023/04/10 02:46:26;;;;;;;9.10;8.80;;;20.70;53.50;;;;;;5111738;28;20473;-58
2023/04/10 02:48:53;;;;;;;9.40;9.00;;;20.70;53.50;;;;;;5105800;28;20530;-58
2023/04/10 02:51:21;;;;;;;9.13;8.83;;;20.80;53.60;;;;;;5095640;28;20984;-57
2023/04/10 02:53:48;;;;;;;9.83;9.40;;;20.70;53.50;;;;;;5095397;28;20529;-59
2023/04/10 02:56:15;;;;;;;8.50;8.30;;;20.80;53.60;;;;;;5096150;28;20525;-57
2023/04/10 02:58:44;;;;;;;9.20;8.80;;;20.70;53.50;;;;;;5115625;28;20932;-58
2023/04/10 03:01:12;;;;;;;9.40;9.10;;;20.70;53.50;;;;;;5115836;28;20484;-58
2023/04/10 03:03:39;;;;;;;9.03;8.73;;;20.70;53.50;;;;;;5099397;28;20446;-58
2023/04/10 03:06:06;;;;;;;8.80;8.50;;;20.70;53.50;;;;;;5110881;28;20568;-55
2023/04/10 03:08:35;;;;;;;9.40;9.00;;;20.70;53.50;;;;;;5115435;28;20479;-59
2023/04/10 03:11:02;;;;;;;9.27;8.97;;;20.70;53.50;;;;;;5115511;28;20449;-58
2023/04/10 03:13:28;;;;;;;9.00;8.60;;;20.70;53.50;;;;;;5115480;28;20488;-57
2023/04/10 03:15:55;;;;;;;8.70;8.40;;;20.70;53.50;;;;;;5112367;28;20548;-58
2023/04/10 03:18:22;;;;;;;8.40;8.10;;;20.70;53.50;;;;;;5094770;28;20537;-58
2023/04/10 03:20:49;;;;;;;8.60;8.23;;;20.70;53.50;;;;;;5095021;28;20481;-58
2023/04/10 03:23:16;;;;;;;8.10;7.80;;;20.60;53.40;;;;;;5094931;28;20446;-59
2023/04/10 03:25:44;;;;;;;7.90;7.60;;;20.60;53.50;;;;;;5094735;28;20910;-56
2023/04/10 03:28:11;;;;;;;7.90;7.60;;;20.70;53.50;;;;;;5094730;28;20454;-58
2023/04/10 03:30:38;;;;;;;7.60;7.40;;;20.70;53.50;;;;;;5099681;28;20466;-59
2023/04/10 03:33:05;;;;;;;8.30;8.00;;;20.70;53.50;;;;;;5094672;28;20525;-57
2023/04/10 03:35:32;;;;;;;8.60;8.20;;;20.70;53.50;;;;;;5094420;28;20557;-58
2023/04/10 03:37:59;;;;;;;8.40;8.10;;;20.70;53.50;;;;;;5094372;28;21032;-57
2023/04/10 03:40:26;;;;;;;7.70;7.40;;;20.60;53.40;;;;;;5094596;28;20461;-57
2023/04/10 03:42:54;;;;;;;8.20;7.90;;;20.70;53.50;;;;;;5094527;28;20527;-59
2023/04/10 03:45:21;;;;;;;7.97;7.67;;;20.60;53.40;;;;;;5108708;28;20544;-58
2023/04/10 03:47:48;;;;;;;8.20;7.90;;;20.70;53.50;;;;;;5114692;28;20864;-58
2023/04/10 03:50:15;;;;;;;8.87;8.47;;;20.60;53.40;;;;;;5114722;28;20476;-58
2023/04/10 03:52:42;;;;;;;8.03;7.73;;;20.60;53.40;;;;;;5114780;28;20446;-57
2023/04/10 03:55:09;;;;;;;7.90;7.50;;;20.60;53.40;;;;;;5114585;28;20493;-57
2023/04/10 03:57:36;;;;;;;8.47;8.07;;;20.60;54.00;;;;;;5112485;28;20469;-57
2023/04/10 04:00:05;;;;;;;7.90;7.60;;;20.60;53.40;;;;;;5093060;28;20482;-58
2023/04/10 04:02:32;;;;;;;7.00;6.80;;;20.60;53.40;;;;;;5094172;28;20446;-57
2023/04/10 04:04:59;;;;;;;7.00;6.80;;;20.60;53.40;;;;;;5094237;28;20830;-57
2023/04/10 04:07:26;;;;;;;7.67;7.43;;;20.60;53.40;;;;;;5111337;28;20569;-57
2023/04/10 04:09:54;;;;;;;8.13;7.83;;;20.60;53.40;;;;;;5125434;28;20755;-59
2023/04/10 04:12:20;;;;;;;7.27;7.00;;;20.60;53.40;;;;;;5105915;28;20450;-59
2023/04/10 04:14:47;;;;;;;8.43;8.10;;;20.60;53.40;;;;;;5093896;28;21012;-59
2023/04/10 04:17:16;;;;;;;7.40;7.20;;;20.60;53.40;;;;;;5093710;28;20478;-59
2023/04/10 04:19:43;;;;;;;8.40;8.10;;;20.60;53.40;;;;;;5100834;28;20474;-59
2023/04/10 04:22:09;;;;;;;7.93;7.60;;;20.50;53.30;;;;;;5105907;28;20885;-59
2023/04/10 04:24:36;;;;;;;8.20;7.90;;;20.50;53.30;;;;;;5114228;28;20504;-59
2023/04/10 04:27:03;;;;;;;8.00;7.60;;;20.60;53.40;;;;;;5113855;28;20561;-60
2023/04/10 04:29:30;;;;;;;7.47;7.23;;;20.50;53.20;;;;;;5114801;28;20956;-56
2023/04/10 04:31:57;;;;;;;7.43;7.13;;;20.60;53.30;;;;;;5103045;28;20768;-58
2023/04/10 04:34:25;;;;;;;8.70;8.30;;;20.50;53.20;;;;;;5093430;28;20562;-56
2023/04/10 04:36:52;;;;;;;8.23;8.03;;;20.60;53.40;;;;;;5093443;28;20446;-55
2023/04/10 04:39:19;;;;;;;8.10;7.80;;;20.60;53.40;;;;;;5094060;28;20474;-57
2023/04/10 04:41:46;;;;;;;8.30;8.00;;;20.50;53.30;;;;;;5093439;28;20507;-57
2023/04/10 04:44:13;;;;;;;8.77;8.43;;;20.50;53.30;;;;;;5105642;28;20489;-57
2023/04/10 04:46:40;;;;;;;8.43;8.07;;;20.50;53.30;;;;;;5113605;28;20481;-58
2023/04/10 04:49:07;;;;;;;8.23;7.93;;;20.50;53.30;;;;;;5113654;28;20488;-58
2023/04/10 04:51:37;;;;;;;8.40;8.10;;;20.50;53.30;;;;;;5109332;28;20522;-58
2023/04/10 04:54:04;;;;;;;7.80;7.60;;;20.60;53.40;;;;;;5093179;28;20446;-57
2023/04/10 04:56:31;;;;;;;8.70;8.20;;;20.50;53.30;;;;;;5093141;28;20847;-56
2023/04/10 04:58:57;;;;;;;8.23;7.93;;;20.50;53.30;;;;;;5094388;28;20510;-61
2023/04/10 05:01:25;;;;;;;7.87;7.57;;;20.60;53.40;;;;;;5098508;28;20477;-58
2023/04/10 05:03:51;;;;;;;7.77;7.57;;;20.60;53.30;;;;;;5113304;28;20495;-60
2023/04/10 05:06:19;;;;;;;9.53;9.00;;;20.70;53.30;;;;;;5113208;28;20513;-60
2023/04/10 05:08:47;;;;;;;7.97;7.67;;;20.60;53.20;;;;;;5113082;28;20503;-59
2023/04/10 05:11:14;;;;;;;8.30;8.00;;;20.70;53.20;;;;;;5113026;28;20529;-59
2023/04/10 05:13:41;;;;;;;8.30;8.00;;;20.60;53.10;;;;;;5108289;28;20449;-61
2023/04/10 05:16:08;;;;;;;7.50;7.30;;;20.60;53.10;;;;;;5113051;28;20912;-58
2023/04/10 05:18:35;;;;;;;7.87;7.57;;;20.70;53.20;;;;;;5112806;28;20506;-60
2023/04/10 05:21:02;;;;;;;7.80;7.50;;;20.70;53.20;;;;;;5112973;28;20481;-57
2023/04/10 05:23:29;;;;;;;8.60;8.30;;;20.70;53.20;;;;;;5112028;28;20524;-59
2023/04/10 05:25:57;;;;;;;8.00;7.70;;;20.80;53.90;;;;;;5099924;28;20545;-53
2023/04/10 05:28:25;;;;;;;8.10;7.80;;;20.80;54.20;;;;;;5092427;28;20504;-58
2023/04/10 05:30:52;;;;;;;8.97;8.57;;;20.80;53.70;;;;;;5092362;28;20478;-57
2023/04/10 05:33:19;;;;;;;9.20;8.80;;;20.80;53.60;;;;;;5092573;28;20529;-58
2023/04/10 05:35:46;;;;;;;8.50;8.20;;;20.90;53.90;;;;;;5097783;28;20516;-62
2023/04/10 05:38:13;;;;;;;8.53;8.13;;;21.00;54.40;;;;;;5110671;28;20473;-58
2023/04/10 05:40:40;;;;;;;9.27;8.87;;;21.00;54.50;;;;;;5100372;28;20477;-61
2023/04/10 05:43:08;;;;;;;8.60;8.20;;;21.00;54.50;;;;;;5092663;28;20485;-60
2023/04/10 05:45:35;;;;;;;8.43;8.13;;;21.10;54.80;;;;;;5092219;28;20462;-59
2023/04/10 05:48:02;;;;;;;8.80;8.50;;;21.10;54.70;;;;;;5095898;28;20515;-57
2023/04/10 05:50:29;;;;;;;9.50;9.20;;;21.20;54.80;;;;;;5112914;28;20470;-59
2023/04/10 05:52:56;;;;;;;8.80;8.50;;;21.20;54.90;;;;;;5112747;28;20828;-59
2023/04/10 05:55:23;;;;;;;9.10;8.80;;;21.20;54.70;;;;;;5112576;28;20861;-60
2023/04/10 05:57:50;;;;;;;8.50;8.20;;;21.30;54.30;;;;;;5112293;28;20517;-62
2023/04/10 06:00:19;;;;;;;9.00;8.70;;;21.30;53.60;;;;;;5110114;28;20938;-61
2023/04/10 06:02:48;;;;;;;9.30;9.00;;;21.30;53.70;;;;;;5113719;28;20880;-62
2023/04/10 06:05:18;;;;;;;9.67;9.27;;;21.40;55.00;;;;;;5113632;28;20487;-62
2023/04/10 06:07:45;;;;;;;9.63;9.33;;;21.40;54.10;;;;;;5112635;28;20477;-64
2023/04/10 06:10:12;;;;;;;10.47;10.07;;;21.40;53.40;;;;;;5113605;28;20437;-63
2023/04/10 06:12:39;;;;;;;9.27;8.97;;;21.50;53.30;;;;;;5104328;28;21010;-63
2023/04/10 06:15:07;;;;;;;10.60;10.00;;;21.50;53.20;;;;;;5092426;28;20505;-64
2023/04/10 06:17:41;;;;;;;10.30;9.90;;;21.50;53.10;;;;;;5092524;28;20443;-62
2023/04/10 06:20:10;;;;;;;9.30;9.00;;;21.60;53.10;;;;;;5092641;28;20883;-63
2023/04/10 06:22:37;;;;;;;10.03;9.57;;;21.60;53.00;;;;;;5092396;28;20529;-63
2023/04/10 06:25:05;;;;;;;9.27;8.97;;;21.60;52.80;;;;;;5103006;28;20522;-63
2023/04/10 06:27:33;;;;;;;9.50;9.20;;;21.70;52.70;;;;;;5112210;28;20488;-63
2023/04/10 06:30:00;;;;;;;8.70;8.40;;;21.70;52.50;;;;;;5112019;28;20541;-62
2023/04/10 06:32:27;;;;;;;10.30;9.90;;;21.70;52.40;;;;;;5112012;28;20473;-62
2023/04/10 06:34:56;;;;;;;9.93;9.63;;;21.70;52.40;;;;;;5112040;28;20469;-64
2023/04/10 06:37:30;;;;;;;9.60;9.30;;;21.70;52.30;;;;;;5098225;28;20477;-64
2023/04/10 06:40:06;;;;;;;10.40;10.00;;;21.80;52.30;;;;;;5091873;28;20632;-63
2023/04/10 06:42:33;;;;;;;9.93;9.60;;;21.80;52.80;;;;;;5092082;28;20473;-63
2023/04/10 06:45:00;;;;;;;9.47;9.07;;;21.80;52.20;;;;;;5091569;28;20537;-63
2023/04/10 06:47:27;;;;;;;9.63;9.33;;;21.80;52.10;;;;;;5091248;28;20515;-64
2023/04/10 06:49:55;;;;;;;9.70;9.40;;;21.80;52.00;;;;;;5108806;28;20446;-63
2023/04/10 06:52:22;;;;;;;11.40;10.90;;;21.80;51.90;;;;;;5112030;28;20477;-63
2023/04/10 06:54:49;;;;;;;10.53;10.13;;;21.80;51.90;;;;;;5111954;28;20497;-63
2023/04/10 06:57:17;;;;;;;9.90;9.50;;;21.90;51.90;;;;;;5102380;28;20479;-64
2023/04/10 06:59:44;;;;;;;10.37;10.00;;;21.90;51.80;;;;;;5091662;28;20451;-64
2023/04/10 07:02:11;;;;;;;9.77;9.37;;;21.90;51.80;;;;;;5091959;28;20489;-64
2023/04/10 07:04:42;;;;;;;9.67;9.37;;;21.90;51.80;;;;;;5092186;28;20494;-64
2023/04/10 07:07:12;;;;;;;10.60;10.10;;;21.90;51.80;;;;;;5093315;28;20474;-61
2023/04/10 07:09:39;;;;;;;9.57;9.20;;;21.90;52.20;;;;;;5092649;28;20451;-60
2023/04/10 07:12:06;;;;;;;9.60;9.30;;;21.90;52.00;;;;;;5106126;28;20483;-61
2023/04/10 07:14:34;;;;;;;9.23;8.83;;;21.90;51.90;;;;;;5111797;28;20474;-61
2023/04/10 07:17:01;;;;;;;9.80;9.50;;;21.90;51.90;;;;;;5111697;28;20800;-63
2023/04/10 07:19:28;;;;;;;9.53;9.23;;;21.90;51.70;;;;;;5111571;28;20529;-63
2023/04/10 07:21:55;;;;;;;10.07;9.67;;;21.90;51.70;;;;;;5098890;28;20522;-63
2023/04/10 07:24:24;;;;;;;9.90;9.60;;;21.90;51.80;;;;;;5091128;28;20958;-63
2023/04/10 07:26:51;;;;;;;10.13;9.70;;;21.90;51.80;;;;;;5092857;28;20512;-62
2023/04/10 07:29:18;;;;;;;10.73;10.27;;;22.00;52.10;;;;;;5094830;28;20533;-64
2023/04/10 07:31:45;;;;;;;9.67;9.27;;;22.00;52.40;;;;;;5092110;28;20470;-63
2023/04/10 07:34:12;;;;;;;9.87;9.57;;;21.90;52.00;;;;;;5111758;28;20497;-63
2023/04/10 07:36:39;;;;;;;9.77;9.47;;;21.90;52.10;;;;;;5118617;28;20446;-63
2023/04/10 07:39:06;;;;;;;10.10;9.70;;;21.90;52.70;;;;;;5115492;28;20480;-63
2023/04/10 07:41:35;;;;;;;10.27;9.93;;;21.90;52.30;;;;;;5115505;28;20473;-63
2023/04/10 07:44:02;;;;;;;10.37;10.07;;;21.90;51.90;;;;;;5115486;28;20520;-63
2023/04/10 07:46:28;;;;;;;13.03;12.07;;;21.90;52.00;;;;;;5098903;28;20644;-59
2023/04/10 07:48:55;;;;;;;9.53;9.23;;;22.00;52.70;;;;;;5094614;28;20568;-62
2023/04/10 07:51:23;;;;;;;11.07;10.67;;;22.00;52.70;;;;;;5094608;28;20451;-63
2023/04/10 07:53:50;;;;;;;10.00;9.60;;;22.00;52.40;;;;;;5095321;28;20488;-62
2023/04/10 07:56:17;;;;;;;10.13;9.73;;;22.00;52.60;;;;;;5094751;28;20474;-62
2023/04/10 07:58:46;;;;;;;10.23;9.73;;;21.90;52.50;;;;;;5112016;28;20477;-58
2023/04/10 08:01:13;;;;;;;10.60;10.00;;;22.00;52.60;;;;;;5114706;28;20446;-60
2023/04/10 08:03:40;;;;;;;10.70;10.03;;;22.00;52.70;;;;;;5114536;28;20473;-60
2023/04/10 08:06:09;;;;;;;10.53;10.03;;;21.90;52.90;;;;;;5114476;28;20492;-59
2023/04/10 08:08:36;;;;;;;10.50;9.80;;;21.90;53.10;;;;;;5114476;28;20485;-60
2023/04/10 08:11:04;;;;;;;9.40;9.07;;;21.90;53.20;;;;;;5098112;28;20474;-63
2023/04/10 08:13:32;;;;;;;10.50;10.00;;;21.90;54.40;;;;;;5094588;28;20821;-62
2023/04/10 08:16:00;;;;;;;10.50;9.97;;;21.90;54.80;;;;;;5094149;28;20876;-63
2023/04/10 08:18:27;;;;;;;11.23;10.53;;;21.90;52.70;;;;;;5105327;28;20469;-63
2023/04/10 08:20:53;;;;;;;10.90;10.50;;;21.90;52.60;;;;;;5114269;28;20465;-62
2023/04/10 08:23:20;;;;;;;10.67;10.00;;;21.90;53.00;;;;;;5114102;28;20484;-62
2023/04/10 08:25:47;;;;;;;10.90;10.40;;;21.90;52.90;;;;;;5114024;28;20505;-62
2023/04/10 08:28:14;;;;;;;10.80;10.30;;;21.80;52.90;;;;;;5113864;28;20565;-62
2023/04/10 08:30:41;;;;;;;10.53;9.83;;;21.80;53.00;;;;;;5101562;28;20482;-61
2023/04/10 08:33:09;;;;;;;10.37;9.87;;;21.90;53.00;;;;;;5093887;28;20478;-61
2023/04/10 08:35:36;;;;;;;10.77;9.93;;;21.80;52.20;;;;;;5094139;28;20523;-62
2023/04/10 08:38:03;;;;;;;11.63;10.87;;;21.80;51.90;;;;;;5093793;28;20511;-62
2023/04/10 08:40:30;;;;;;;10.33;9.93;;;21.80;51.80;;;;;;5094351;28;20473;-63
2023/04/10 08:42:57;;;;;;;10.20;9.50;;;21.80;52.70;;;;;;5107558;28;20883;-62
2023/04/10 08:45:24;;;;;;;10.93;10.43;;;21.80;51.40;;;;;;5113412;28;20262;-62
2023/04/10 08:47:52;;;;;;;11.07;10.57;;;21.80;50.20;;;;;;5113904;28;20568;-62
2023/04/10 08:50:21;;;;;;;10.87;10.33;;;21.80;50.10;;;;;;5113880;28;20452;-62
2023/04/10 08:52:52;;;;;;;12.20;11.50;;;21.80;50.30;;;;;;5113747;28;20473;-62
2023/04/10 08:55:20;;;;;;;13.70;12.53;;;21.80;50.00;;;;;;5096565;28;20467;-63
2023/04/10 08:57:47;;;;;;;12.37;11.30;;;21.80;51.30;;;;;;5094639;28;20469;-64
2023/04/10 09:00:15;;;;;;;12.47;11.67;;;21.80;52.40;;;;;;5093584;28;20487;-64
2023/04/10 09:02:42;;;;;;;13.80;12.63;;;21.80;54.40;;;;;;5097417;28;20442;-63
2023/04/10 09:05:12;;;;;;;11.93;11.00;;;21.80;54.60;;;;;;5093166;28;20535;-63
2023/04/10 09:07:40;;;;;;;11.70;10.77;;;21.70;53.80;;;;;;5092699;28;20864;-62
2023/04/10 09:10:08;;;;;;;11.97;11.03;;;21.70;54.30;;;;;;5092822;28;20507;-62
2023/04/10 09:12:45;;;;;;;11.73;11.00;;;21.60;52.40;;;;;;5092843;28;20477;-63
2023/04/10 09:15:13;;;;;;;11.03;10.53;;;21.50;51.30;;;;;;5092784;28;20466;-63
2023/04/10 09:17:56;;;;;;;10.67;10.17;;;21.50;50.70;;;;;;5092536;28;20438;-63
2023/04/10 09:20:25;;;;;;;12.10;11.50;;;21.50;50.20;;;;;;5092712;28;20442;-63
2023/04/10 09:22:53;;;;;;;11.40;10.90;;;21.40;49.80;;;;;;5092662;28;20527;-63
2023/04/10 09:25:32;;;;;;;10.97;10.47;;;21.40;49.40;;;;;;5092441;28;20505;-63
2023/04/10 09:28:04;;;;;;;11.50;11.00;;;21.30;49.00;;;;;;5092267;28;20842;-63
2023/04/10 09:30:39;;;;;;;10.57;10.07;;;21.30;48.70;;;;;;5092568;28;20450;-64
2023/04/10 09:33:21;;;;;;;10.43;9.93;;;21.20;48.30;;;;;;5092512;28;20486;-63
2023/04/10 09:35:49;;;;;;;10.80;10.33;;;21.20;48.10;;;;;;5092278;28;20906;-64
2023/04/10 09:38:18;;;;;;;10.33;9.93;;;21.20;47.70;;;;;;5092404;28;20529;-63
2023/04/10 09:40:47;;;;;;;9.67;9.27;;;21.10;47.60;;;;;;5092421;28;20466;-62
2023/04/10 09:43:21;;;;;;;10.23;9.73;;;21.10;47.40;;;;;;5092292;28;20813;-63
2023/04/10 09:45:49;;;;;;;9.80;9.50;;;21.10;47.20;;;;;;5092153;28;20512;-62
2023/04/10 09:48:16;;;;;;;9.97;9.57;;;21.10;47.00;;;;;;5091929;28;20529;-63
2023/04/10 09:50:43;;;;;;;10.37;9.83;;;21.10;47.10;;;;;;5092200;28;20477;-64
2023/04/10 09:53:12;;;;;;;10.90;10.43;;;21.00;46.80;;;;;;5092063;28;20473;-63
2023/04/10 09:55:41;;;;;;;10.17;9.50;;;21.00;46.80;;;;;;5092027;28;20904;-62
2023/04/10 09:58:09;;;;;;;9.23;8.93;;;21.00;46.70;;;;;;5091029;28;20478;-63
2023/04/10 10:00:40;;;;;;;9.40;8.90;;;20.90;46.30;;;;;;5092177;28;20483;-63
2023/04/10 10:03:09;;;;;;;10.13;9.73;;;20.90;46.40;;;;;;5092021;28;20457;-63
2023/04/10 10:05:37;;;;;;;9.87;9.47;;;20.80;46.20;;;;;;5091808;28;20473;-63
2023/04/10 10:08:04;;;;;;;10.60;10.20;;;20.90;46.20;;;;;;5091631;28;20583;-62
2023/04/10 10:10:31;;;;;;;10.27;9.67;;;20.80;45.90;;;;;;5092016;28;20537;-63
2023/04/10 10:13:03;;;;;;;9.50;9.20;;;20.80;45.90;;;;;;5091818;28;20478;-63
2023/04/10 10:15:37;;;;;;;10.10;9.60;;;20.80;45.80;;;;;;5091794;28;20470;-63
2023/04/10 10:18:09;;;;;;;9.40;9.10;;;20.70;45.50;;;;;;5091695;28;20441;-64
2023/04/10 10:20:38;;;;;;;9.73;9.33;;;20.80;45.60;;;;;;5092023;28;20496;-63
2023/04/10 10:23:07;;;;;;;10.60;10.20;;;20.70;45.50;;;;;;5091565;28;20478;-63
2023/04/10 10:25:35;;;;;;;10.40;10.00;;;20.70;45.30;;;;;;5091633;28;20466;-63
2023/04/10 10:28:05;;;;;;;9.50;9.20;;;20.70;45.40;;;;;;5091389;28;20573;-64
2023/04/10 10:30:33;;;;;;;9.30;9.00;;;20.70;45.20;;;;;;5091668;28;20496;-63
2023/04/10 10:33:01;;;;;;;10.70;10.20;;;20.60;45.60;;;;;;5091658;28;20537;-63
2023/04/10 10:35:30;;;;;;;10.00;9.70;;;20.60;45.00;;;;;;5091633;28;20470;-63
2023/04/10 10:37:59;;;;;;;9.57;9.27;;;20.60;45.00;;;;;;5091231;28;20443;-64
2023/04/10 10:40:31;;;;;;;9.73;9.33;;;20.60;44.90;;;;;;5091571;28;20893;-63
2023/04/10 10:43:08;;;;;;;9.90;9.50;;;20.60;44.90;;;;;;5091517;28;20477;-64
2023/04/10 10:45:40;;;;;;;10.27;9.87;;;20.60;44.80;;;;;;5091481;28;20848;-63
2023/04/10 10:48:07;;;;;;;9.60;9.20;;;20.60;44.80;;;;;;5091226;28;20518;-62
2023/04/10 10:50:55;;;;;;;10.07;9.67;;;20.50;44.60;;;;;;5091493;28;20542;-63
2023/04/10 10:53:37;;;;;;;9.97;9.47;;;20.50;44.60;;;;;;5091461;28;20855;-64
2023/04/10 10:56:37;;;;;;;9.80;9.40;;;20.50;44.60;;;;;;5091292;28;20547;-63
2023/04/10 10:59:05;;;;;;;9.30;8.90;;;20.50;44.60;;;;;;5088820;28;20538;-63
2023/04/10 11:01:32;;;;;;;9.37;9.07;;;20.50;44.60;;;;;;5091282;28;20474;-63
2023/04/10 11:04:00;;;;;;;10.67;10.13;;;20.40;44.60;;;;;;5091251;28;20485;-64
2023/04/10 11:06:51;;;;;;;10.37;9.90;;;20.50;44.60;;;;;;5091463;28;20453;-63
2023/04/10 11:09:49;;;;;;;9.30;9.00;;;20.50;44.50;;;;;;5086593;28;20485;-64
2023/04/10 11:12:18;;;;;;;9.37;8.97;;;20.50;44.50;;;;;;5095234;28;20446;-64
2023/04/10 11:14:58;;;;;;;9.57;9.23;;;20.40;44.40;;;;;;5095009;28;20458;-64
2023/04/10 11:17:47;;;;;;;10.50;10.10;;;20.40;44.30;;;;;;5095020;28;20924;-64
2023/04/10 11:20:14;;;;;;;9.67;9.37;;;20.40;44.40;;;;;;5095046;28;20446;-63
2023/04/10 11:23:13;;;;;;;9.23;8.93;;;20.40;44.30;;;;;;5094902;28;20541;-64
2023/04/10 11:25:48;;;;;;;8.80;8.60;;;20.40;44.20;;;;;;5094802;28;21068;-62
2023/04/10 11:28:39;;;;;;;9.00;8.70;;;20.40;44.20;;;;;;5094621;28;21008;-63
2023/04/10 11:31:20;;;;;;;9.73;9.30;;;20.40;44.20;;;;;;5094922;28;20442;-63
2023/04/10 11:33:48;;;;;;;9.87;9.47;;;20.40;44.20;;;;;;5094493;28;20446;-63
2023/04/10 11:36:16;;;;;;;9.13;8.87;;;20.40;44.20;;;;;;5095141;28;20451;-60
2023/04/10 11:38:54;;;;;;;9.17;8.87;;;20.40;44.10;;;;;;5094360;28;20442;-61
2023/04/10 11:41:26;;;;;;;10.23;9.83;;;20.30;43.90;;;;;;5094779;28;20448;-61
2023/04/10 11:43:52;;;;;;;10.30;10.00;;;20.40;43.90;;;;;;5094537;28;20438;-62
2023/04/10 11:46:21;;;;;;;9.93;9.53;;;20.30;43.60;;;;;;5094720;28;20481;-59
2023/04/10 11:48:51;;;;;;;9.77;9.37;;;20.30;43.60;;;;;;5094194;28;20855;-62
2023/04/10 11:51:18;;;;;;;9.73;9.33;;;20.30;43.80;;;;;;5094576;28;20477;-59
2023/04/10 11:53:45;;;;;;;9.77;9.47;;;20.30;43.80;;;;;;5094347;28;20880;-60
2023/04/10 11:56:17;;;;;;;9.40;9.10;;;20.30;43.90;;;;;;5094343;28;20522;-60
2023/04/10 11:58:44;;;;;;;9.30;9.00;;;20.30;44.00;;;;;;5094133;28;20469;-62
2023/04/10 12:01:13;;;;;;;9.20;8.90;;;20.30;43.90;;;;;;5094279;28;20447;-62
2023/04/10 12:03:42;;;;;;;10.00;9.60;;;20.30;43.80;;;;;;5094162;28;20450;-60
2023/04/10 12:06:12;;;;;;;9.73;9.33;;;20.30;43.90;;;;;;5094034;28;20901;-62
2023/04/10 12:08:40;;;;;;;10.00;9.50;;;20.30;43.90;;;;;;5093752;28;20510;-60
2023/04/10 12:11:08;;;;;;;10.23;9.83;;;20.30;43.90;;;;;;5094200;28;20579;-61
2023/04/10 12:13:35;;;;;;;9.27;8.97;;;20.30;44.30;;;;;;5094034;28;20533;-61
2023/04/10 12:16:05;;;;;;;9.87;9.57;;;20.30;43.90;;;;;;5093746;28;20903;-59
2023/04/10 12:18:32;;;;;;;9.70;9.40;;;20.30;43.80;;;;;;5093707;28;20442;-62
2023/04/10 12:21:01;;;;;;;10.67;10.27;;;20.30;43.80;;;;;;5092910;28;20521;-59
2023/04/10 12:23:29;;;;;;;9.73;9.40;;;20.30;43.80;;;;;;5093818;28;20984;-63
2023/04/10 12:26:13;;;;;;;8.90;8.60;;;20.30;43.90;;;;;;5093675;28;21017;-60
2023/04/10 12:28:41;;;;;;;9.67;9.37;;;20.30;43.80;;;;;;5093413;28;20572;-60
2023/04/10 12:31:09;;;;;;;9.50;9.20;;;20.30;43.80;;;;;;5093761;28;20478;-59
2023/04/10 12:33:36;;;;;;;8.87;8.67;;;20.30;43.80;;;;;;5093651;28;20442;-60
2023/04/10 12:36:05;;;;;;;9.30;8.90;;;20.30;44.00;;;;;;5093442;28;20922;-62
2023/04/10 12:38:38;;;;;;;10.23;9.83;;;20.30;44.10;;;;;;5093334;28;20868;-62
2023/04/10 12:41:06;;;;;;;9.30;9.00;;;20.20;43.80;;;;;;5093586;28;20478;-61
2023/04/10 12:43:35;;;;;;;9.83;9.53;;;20.30;44.10;;;;;;5093472;28;20470;-62
2023/04/10 12:46:03;;;;;;;10.57;10.10;;;20.20;44.00;;;;;;5093292;28;20470;-64
2023/04/10 12:48:30;;;;;;;9.57;9.27;;;20.30;44.10;;;;;;5093027;28;20517;-63
2023/04/10 12:50:57;;;;;;;9.63;9.23;;;20.30;44.00;;;;;;5093198;28;20456;-63
2023/04/10 12:53:26;;;;;;;9.40;9.10;;;20.30;44.00;;;;;;5093436;28;20529;-62